X  Schlie├čen METAR Luftfahrt Wetterdaten     EDDK Cologne Bonn Airport
Temperatur
13°C Temperatur
11°C Taupunkt
88% Feuchtigkeit



Wind
3 MPS
5 KM/S
1 M/S
3 KTS



170°
S
Aktuelle Wetterlage

Klar Klar
Luftdruck 1028.78 (hPa) - 30.38 (inHg)
Sichtweite 6 (Meile) - 9.7 (Km)
Flughafen
Flughafen Code EDDK

Position : Cologne Bonn Airport
Entfernung: 56 (mi)

Metar:
EDDK 122250Z AUTO 17003KT CAVOK 13/11 Q1029 NOSIG

Zeit: 2024-04-13 00:50 CEST